Time;durP1;ratioP1;P1;durP2;ratioP2;P2;SDS_P1;SDS_P2;PMS_P1;PMS_P2;Temp;Humidity;BMP_temperature;BMP_pressure;BME280_temperature;BME280_humidity;BME280_pressure;Samples;Min_cycle;Max_cycle;Signal;HPM_P1;HPM_P2
2022/05/29 00:02:06;;;;;;;1.20;1.13;;;;;;;19.57;57.36;96866.09;6072255;23;20175;-92
2022/05/29 00:04:33;;;;;;;1.40;1.30;;;;;;;19.45;57.40;96842.81;6047334;23;20160;-91
2022/05/29 00:07:00;;;;;;;1.10;1.10;;;;;;;18.78;57.37;96734.84;6048132;23;20160;-92
2022/05/29 00:09:36;;;;;;;1.17;1.10;;;;;;;19.21;57.30;96805.59;6071654;23;20169;-92
2022/05/29 00:12:04;;;;;;;1.30;1.20;;;;;;;18.88;57.15;96715.56;6071638;23;20179;-92
2022/05/29 00:14:31;;;;;;;1.20;1.20;;;;;;;20.11;57.43;96938.06;6071718;23;20198;-92
2022/05/29 00:16:58;;;;;;;1.40;1.30;;;;;;;20.17;57.24;96960.34;6047846;23;20203;-92
2022/05/29 00:19:26;;;;;;;1.30;1.20;;;;;;;19.44;57.50;96814.75;6071613;23;20211;-91
2022/05/29 00:21:54;;;;;;;1.30;1.20;;;;;;;19.84;57.19;96907.59;6048052;23;20161;-91
2022/05/29 00:24:21;;;;;;;1.20;1.20;;;;;;;19.35;57.92;96817.06;6071508;23;20156;-92
2022/05/29 00:26:48;;;;;;;1.23;1.13;;;;;;;20.92;57.95;97082.25;6048224;23;20168;-92
2022/05/29 00:29:15;;;;;;;1.27;1.10;;;;;;;20.12;57.36;96938.91;6047990;23;20172;-92
2022/05/29 00:31:42;;;;;;;1.17;1.10;;;;;;;20.01;57.25;96902.94;6047911;23;20176;-92
2022/05/29 00:34:09;;;;;;;1.20;1.20;;;;;;;20.10;57.34;96935.47;6071591;23;20208;-91
2022/05/29 00:36:38;;;;;;;1.30;1.20;;;;;;;21.05;57.23;97079.22;6071789;23;20152;-92
2022/05/29 00:39:07;;;;;;;1.17;1.17;;;;;;;19.15;57.41;96757.91;6071617;23;20168;-92
2022/05/29 00:41:35;;;;;;;1.47;1.20;;;;;;;19.82;57.50;96873.56;6071392;23;20152;-92
2022/05/29 00:44:14;;;;;;;1.13;1.13;;;;;;;21.52;57.37;97162.97;6071683;23;20177;-91
2022/05/29 00:46:49;;;;;;;1.50;1.40;;;;;;;20.28;57.41;96961.47;6095037;23;20152;-91
2022/05/29 00:49:17;;;;;;;1.47;1.37;;;;;;;21.07;57.44;97098.84;6048932;23;20191;-92
2022/05/29 00:51:57;;;;;;;1.50;1.40;;;;;;;19.60;57.33;96834.75;6070337;23;20224;-93
2022/05/29 00:54:25;;;;;;;1.30;1.20;;;;;;;19.82;57.71;96888.00;6060869;23;20228;-92
2022/05/29 00:56:52;;;;;;;1.20;1.20;;;;;;;18.97;57.41;96737.06;6019701;23;20202;-91
2022/05/29 00:59:24;;;;;;;2.97;1.20;;;;;;;21.52;57.72;97150.19;6019423;23;20225;-92
2022/05/29 01:01:51;;;;;;;9.20;1.30;;;;;;;19.94;57.12;96885.75;6041791;23;20165;-92
2022/05/29 01:04:18;;;;;;;1.10;1.10;;;;;;;19.80;57.62;96871.78;6018284;23;20332;-91
2022/05/29 01:06:45;;;;;;;1.30;1.20;;;;;;;20.00;57.41;96908.88;6041244;23;20173;-92
2022/05/29 01:09:12;;;;;;;1.40;1.30;;;;;;;20.74;57.38;97010.28;6042320;23;20228;-92
2022/05/29 01:11:50;;;;;;;1.40;1.30;;;;;;;21.52;57.40;97137.41;6042554;23;20192;-91
2022/05/29 01:14:20;;;;;;;1.40;1.30;;;;;;;21.51;57.31;97136.56;6065522;23;20164;-92
2022/05/29 01:16:56;;;;;;;1.30;1.30;;;;;;;21.52;57.27;97135.72;6066444;23;20153;-92
2022/05/29 01:20:00;;;;;;;1.40;1.30;;;;;;;21.51;57.50;97134.00;6065806;23;20184;-92
2022/05/29 01:23:35;;;;;;;1.30;1.30;;;;;;;21.52;57.33;97134.84;6065765;23;20165;-92
2022/05/29 01:26:33;;;;;;;1.20;1.20;;;;;;;21.52;57.47;97133.16;5968336;23;20180;-92
2022/05/29 01:29:05;;;;;;;1.17;1.17;;;;;;;20.94;57.48;97045.72;6065700;23;20218;-92
2022/05/29 01:31:51;;;;;;;1.10;1.10;;;;;;;21.52;57.34;97122.06;6019286;23;20180;-93
2022/05/29 01:34:23;;;;;;;1.33;1.23;;;;;;;19.06;57.15;96698.22;6042439;23;20201;-92
2022/05/29 01:37:12;;;;;;;1.37;1.27;;;;;;;21.51;57.56;97115.22;6042578;23;20153;-92
2022/05/29 01:39:50;;;;;;;1.30;1.20;;;;;;;19.67;57.47;96803.47;6065622;23;20165;-92
2022/05/29 01:42:23;;;;;;;1.30;1.20;;;;;;;20.07;57.34;96877.56;6065370;23;20149;-92
2022/05/29 01:45:00;;;;;;;1.53;1.30;;;;;;;19.28;57.62;96732.00;6042356;23;20185;-92
2022/05/29 01:47:52;;;;;;;1.40;1.30;;;;;;;18.91;57.24;96659.66;6043359;23;20173;-92
2022/05/29 01:50:33;;;;;;;1.50;1.40;;;;;;;19.59;57.47;96782.88;6065440;23;20173;-92
2022/05/29 01:53:10;;;;;;;1.30;1.20;;;;;;;20.04;57.42;96866.44;6049343;23;20171;-91
2022/05/29 01:55:43;;;;;;;1.40;1.30;;;;;;;19.26;57.27;96713.22;6071266;23;20159;-92
2022/05/29 01:58:12;;;;;;;1.30;1.20;;;;;;;20.43;57.51;96905.72;6047694;23;20168;-92
2022/05/29 02:00:39;;;;;;;1.40;1.30;;;;;;;18.87;57.36;96655.31;6070821;23;20172;-91
2022/05/29 02:03:11;;;;;;;1.20;1.20;;;;;;;21.51;57.36;97082.00;6070395;23;20149;-92
2022/05/29 02:05:45;;;;;;;1.10;1.10;;;;;;;20.02;57.31;96836.66;6069717;23;20156;-91
2022/05/29 02:08:13;;;;;;;1.40;1.30;;;;;;;20.09;57.33;96852.97;6070653;23;20196;-92
2022/05/29 02:10:46;;;;;;;1.40;1.30;;;;;;;19.32;57.28;96715.09;6070223;23;20161;-91
2022/05/29 02:13:16;;;;;;;1.30;1.20;;;;;;;21.51;57.48;97075.19;6070463;23;20216;-92
2022/05/29 02:16:02;;;;;;;1.50;1.40;;;;;;;19.53;57.25;96724.13;6094269;23;20169;-92
2022/05/29 02:18:53;;;;;;;1.40;1.30;;;;;;;21.51;57.42;97057.31;6093914;23;20164;-92
2022/05/29 02:21:20;;;;;;;2.30;1.20;;;;;;;21.51;57.34;97046.19;6070217;23;20152;-91
2022/05/29 02:23:50;;;;;;;1.10;1.10;;;;;;;19.22;57.59;96659.63;6094378;23;20205;-92
2022/05/29 02:26:18;;;;;;;1.30;1.20;;;;;;;20.04;57.19;96829.03;6070410;23;20156;-92
2022/05/29 02:28:48;;;;;;;1.10;1.10;;;;;;;19.45;57.21;96679.75;6069902;23;20172;-91
2022/05/29 02:31:49;;;;;;;1.87;1.30;;;;;;;21.50;57.40;97029.13;6070464;23;20172;-91
2022/05/29 02:34:18;;;;;;;1.30;1.20;;;;;;;21.50;57.15;97032.53;6093623;23;20195;-91
2022/05/29 02:37:10;;;;;;;1.40;1.30;;;;;;;20.09;57.39;96783.22;6070512;23;20232;-92
2022/05/29 02:39:51;;;;;;;1.10;1.10;;;;;;;19.40;57.31;96698.31;6093302;23;20304;-91
2022/05/29 02:42:30;;;;;;;1.20;1.20;;;;;;;19.19;57.31;96641.72;6071338;23;20149;-92
2022/05/29 02:45:09;;;;;;;1.30;1.20;;;;;;;21.51;57.40;97008.72;6070739;23;20189;-92
2022/05/29 02:47:47;;;;;;;1.30;1.20;;;;;;;20.02;57.09;96762.69;6117648;23;20195;-92
2022/05/29 02:50:18;;;;;;;1.20;1.20;;;;;;;21.51;57.31;97011.28;6071785;23;20180;-92
2022/05/29 02:52:45;;;;;;;1.20;1.20;;;;;;;21.39;57.28;97000.78;6097470;23;20176;-92
2022/05/29 02:55:12;;;;;;;1.20;1.20;;;;;;;20.08;57.18;96756.00;6074657;23;20207;-92
2022/05/29 02:57:39;;;;;;;1.10;1.10;;;;;;;19.57;57.23;96667.28;6075229;23;20163;-92
2022/05/29 03:00:11;;;;;;;1.13;1.03;;;;;;;19.70;57.14;96705.00;6074491;23;20160;-92
2022/05/29 03:02:53;;;;;;;1.30;1.23;;;;;;;21.51;57.21;96984.84;6076973;23;20144;-92
2022/05/29 03:05:25;;;;;;;2.40;1.53;;;;;;;21.51;57.43;96990.81;6074181;23;20140;-91
2022/05/29 03:08:02;;;;;;;1.10;1.10;;;;;;;19.05;57.16;96572.63;6074692;23;20164;-91
2022/05/29 03:10:31;;;;;;;1.30;1.20;;;;;;;21.50;57.37;96989.06;6075142;23;20148;-92
2022/05/29 03:13:22;;;;;;;1.10;1.10;;;;;;;21.51;57.36;96989.94;6074776;23;20200;-92
2022/05/29 03:16:21;;;;;;;1.40;1.30;;;;;;;19.51;57.11;96674.78;6097994;23;20161;-92
2022/05/29 03:18:58;;;;;;;1.37;1.17;;;;;;;21.51;57.34;96985.72;6081966;23;20207;-91
2022/05/29 03:21:43;;;;;;;1.10;1.10;;;;;;;19.70;57.50;96693.94;6098389;23;20155;-91
2022/05/29 03:24:23;;;;;;;1.50;1.40;;;;;;;21.50;57.41;96978.84;6074842;23;20430;-91
2022/05/29 03:27:08;;;;;;;1.20;1.20;;;;;;;21.51;57.38;96978.03;6074705;23;20215;-92
2022/05/29 03:29:47;;;;;;;1.20;1.20;;;;;;;21.50;57.14;96973.72;6098428;23;20442;-92
2022/05/29 03:32:14;;;;;;;1.10;1.10;;;;;;;20.15;57.09;96740.91;6098413;23;20211;-92
2022/05/29 03:34:41;;;;;;;1.20;1.20;;;;;;;19.49;57.28;96648.44;6075032;23;20155;-92
2022/05/29 03:37:08;;;;;;;1.30;1.20;;;;;;;19.20;57.24;96588.25;6051330;23;20160;-92
2022/05/29 03:39:35;;;;;;;1.43;1.33;;;;;;;18.79;57.12;96501.53;6074545;23;20172;-92
2022/05/29 03:42:02;;;;;;;1.27;1.20;;;;;;;19.48;57.20;96640.75;6074572;23;20152;-92
2022/05/29 03:44:29;;;;;;;1.27;1.13;;;;;;;20.11;56.92;96740.78;6074509;23;20207;-92
2022/05/29 03:46:56;;;;;;;1.30;1.20;;;;;;;19.70;57.07;96661.69;6051128;23;20210;-92
2022/05/29 03:49:23;;;;;;;1.47;1.37;;;;;;;20.73;57.36;96825.59;6074986;23;20176;-91
2022/05/29 03:51:51;;;;;;;1.40;1.30;;;;;;;19.86;57.31;96679.03;6074717;23;20183;-92
2022/05/29 03:54:18;;;;;;;1.13;1.10;;;;;;;19.13;57.06;96568.53;6074267;23;20164;-91
2022/05/29 03:56:45;;;;;;;1.27;1.20;;;;;;;20.00;57.21;96707.38;6051203;23;20179;-92
2022/05/29 03:59:14;;;;;;;1.47;1.37;;;;;;;21.51;57.29;96965.25;6074681;23;20194;-92
2022/05/29 04:01:42;;;;;;;1.40;1.30;;;;;;;21.52;57.30;96948.19;6075287;23;20171;-91
2022/05/29 04:04:08;;;;;;;1.37;1.27;;;;;;;20.11;57.20;96716.16;6074164;23;20156;-92
2022/05/29 04:06:40;;;;;;;1.10;1.10;;;;;;;19.66;57.46;96651.38;6074873;23;20201;-91
2022/05/29 04:12:04;;;;;;;1.27;1.20;;;;;;;19.61;57.09;96650.41;6081834;23;20176;-92
2022/05/29 04:14:39;;;;;;;1.20;1.10;;;;;;;20.05;57.00;96716.00;6055196;23;20178;-92
2022/05/29 04:17:14;;;;;;;1.33;1.23;;;;;;;19.38;56.85;96605.69;6051799;23;20175;-92
2022/05/29 04:19:41;;;;;;;1.13;1.03;;;;;;;19.29;57.24;96580.00;6073900;23;20222;-92
2022/05/29 04:22:09;;;;;;;1.20;1.20;;;;;;;19.41;57.01;96610.84;6074692;23;20148;-93
2022/05/29 04:24:36;;;;;;;1.50;1.40;;;;;;;21.52;57.08;96955.88;6074850;23;20155;-92
2022/05/29 04:27:03;;;;;;;1.30;1.20;;;;;;;19.58;57.01;96627.41;6075496;23;20180;-91
2022/05/29 04:29:32;;;;;;;1.97;1.30;;;;;;;19.28;57.16;96574.06;6075803;23;20199;-92
2022/05/29 04:34:44;;;;;;;1.20;1.10;;;;;;;19.36;57.26;96581.88;6083540;23;20203;-92
2022/05/29 04:37:11;;;;;;;1.40;1.30;;;;;;;21.52;57.11;96963.53;6076611;23;20162;-93
2022/05/29 04:39:38;;;;;;;1.23;1.20;;;;;;;19.85;57.25;96692.63;6076074;23;20172;-91
2022/05/29 04:42:05;;;;;;;1.40;1.30;;;;;;;18.97;57.06;96513.00;6052581;23;20164;-92
2022/05/29 04:44:32;;;;;;;1.13;1.13;;;;;;;20.08;57.02;96723.72;6075545;23;20183;-91
2022/05/29 04:46:59;;;;;;;1.40;1.30;;;;;;;21.01;57.23;96876.44;6075871;23;20164;-92
2022/05/29 04:49:27;;;;;;;1.30;1.20;;;;;;;20.11;56.95;96689.75;6052850;23;20244;-91
2022/05/29 04:51:53;;;;;;;1.20;1.20;;;;;;;19.97;56.93;96671.63;6075661;23;20404;-91
2022/05/29 04:54:20;;;;;;;1.20;1.20;;;;;;;19.45;56.97;96605.03;6075823;23;20247;-91
2022/05/29 04:56:48;;;;;;;1.50;1.40;;;;;;;21.51;57.25;96934.56;6075946;23;20184;-92
2022/05/29 11:39:25;;;;;;;1.00;1.00;;;;;;;20.37;56.86;96722.69;6104029;23;20379;-92
2022/05/29 11:41:56;;;;;;;1.30;1.10;;;;;;;20.56;55.02;96737.56;6100612;23;20156;-92
2022/05/29 11:44:51;;;;;;;2.97;1.40;;;;;;;19.12;52.27;96508.25;6077736;23;20143;-93
2022/05/29 12:01:10;;;;;;;6.57;1.80;;;;;;;18.86;49.85;96458.44;6126574;23;20226;-92
2022/05/29 12:06:33;;;;;;;5.57;1.80;;;;;;;21.47;50.89;96873.13;6109329;23;20187;-92
2022/05/29 12:09:13;;;;;;;5.23;1.87;;;;;;;21.48;52.16;96880.84;6095459;23;20184;-92
2022/05/29 12:11:52;;;;;;;13.10;1.60;;;;;;;20.27;53.31;96666.31;6093827;23;20152;-91
2022/05/29 12:15:06;;;;;;;1.27;1.10;;;;;;;21.47;54.17;96881.63;6071070;23;20156;-92
2022/05/29 12:17:44;;;;;;;2.37;1.17;;;;;;;20.06;54.53;96638.66;6037095;23;20177;-91
2022/05/29 12:20:15;;;;;;;6.27;1.50;;;;;;;20.91;54.39;96767.22;6042202;23;20195;-93
2022/05/29 12:22:47;;;;;;;3.63;1.33;;;;;;;20.66;54.54;96725.84;6071636;23;20163;-91
2022/05/29 12:25:28;;;;;;;5.67;1.73;;;;;;;20.49;54.46;96709.34;6070839;23;20336;-92
2022/05/29 12:27:55;;;;;;;2.70;1.50;;;;;;;20.73;54.43;96738.78;6072258;23;20152;-92
2022/05/29 12:30:29;;;;;;;6.40;1.70;;;;;;;20.46;54.45;96686.31;6070648;23;20180;-93
2022/05/29 12:32:56;;;;;;;7.73;1.60;;;;;;;19.39;54.00;96524.19;6048672;23;20175;-92
2022/05/29 12:35:27;;;;;;;5.23;1.60;;;;;;;20.86;54.29;96744.97;6070188;23;20168;-92
2022/05/29 12:38:06;;;;;;;5.33;1.50;;;;;;;21.51;54.81;96864.69;6072237;23;20187;-92
2022/05/29 12:40:49;;;;;;;4.30;1.67;;;;;;;21.15;54.92;96815.41;6073592;23;20148;-92
2022/05/29 12:43:57;;;;;;;5.37;1.90;;;;;;;21.48;54.60;96856.94;6049533;23;20171;-94
2022/05/29 12:46:59;;;;;;;7.20;1.50;;;;;;;21.47;54.93;96858.63;6072520;23;20149;-93
2022/05/29 12:49:45;;;;;;;4.00;1.53;;;;;;;21.48;54.61;96856.94;6096044;23;20168;-93
2022/05/29 12:52:21;;;;;;;4.30;1.70;;;;;;;21.48;54.82;96855.25;6105378;23;20274;-93
2022/05/29 12:55:14;;;;;;;4.53;1.40;;;;;;;19.50;54.68;96539.72;6054580;23;20179;-93
2022/05/29 13:35:44;;;;;;;2.33;1.50;;;;;;;19.85;53.80;96628.88;6115681;23;20221;-91
2022/05/29 13:38:11;;;;;;;5.27;1.70;;;;;;;19.62;54.27;96571.41;6077891;23;20176;-93
2022/05/29 13:40:41;;;;;;;3.63;1.63;;;;;;;19.29;54.25;96517.19;6079008;23;20147;-93
2022/05/29 13:43:20;;;;;;;3.10;1.60;;;;;;;21.50;54.41;96893.63;6056448;23;20168;-93
2022/05/29 14:10:24;;;;;;;2.93;1.70;;;;;;;21.51;54.56;96901.34;6106525;23;20194;-93
2022/05/29 14:13:08;;;;;;;3.03;1.70;;;;;;;18.76;54.95;96455.66;6100906;23;20199;-92
2022/05/29 14:15:39;;;;;;;2.93;1.50;;;;;;;21.51;54.91;96903.03;6099808;23;20152;-92
2022/05/29 14:18:22;;;;;;;4.77;1.47;;;;;;;20.80;54.83;96807.00;6116152;23;20163;-92
2022/05/29 14:23:31;;;;;;;1.60;1.30;;;;;;;21.52;54.75;96909.84;6109382;23;20193;-93
2022/05/29 14:26:17;;;;;;;3.10;1.67;;;;;;;21.54;54.64;96915.88;6098497;23;20199;-94
2022/05/29 14:29:07;;;;;;;12.80;1.70;;;;;;;20.89;54.90;96811.44;6098965;23;20175;-93
2022/05/29 14:31:52;;;;;;;2.17;1.40;;;;;;;21.53;54.96;96917.56;6076118;23;20208;-92
2022/05/29 14:34:28;;;;;;;3.93;1.50;;;;;;;21.53;54.73;96920.09;6099113;23;20175;-92
2022/05/29 14:42:22;;;;;;;3.87;1.70;;;;;;;21.53;54.61;96929.50;6119666;23;20207;-92
2022/05/29 14:44:51;;;;;;;2.77;1.50;;;;;;;19.88;54.65;96644.25;6096334;23;20166;-92
2022/05/29 14:47:40;;;;;;;2.07;1.50;;;;;;;21.54;54.71;96928.66;6097093;23;20196;-92
2022/05/29 14:50:19;;;;;;;2.77;1.67;;;;;;;20.36;54.58;96746.47;6096222;23;20318;-92
2022/05/29 14:52:52;;;;;;;1.77;1.50;;;;;;;21.55;54.78;96940.59;6067267;23;20187;-93
2022/05/29 16:30:48;;;;;;;3.60;1.60;;;;;;;21.68;53.96;96932.34;6058797;22;1488478;-92
2022/05/29 16:58:00;;;;;;;2.60;1.50;;;;;;;19.00;55.04;96555.50;6151565;23;20183;-92
2022/05/29 17:06:08;;;;;;;2.40;1.30;;;;;;;20.07;55.09;96727.09;6191346;23;20217;-93
2022/05/29 17:28:43;;;;;;;2.40;1.67;;;;;;;21.41;55.24;96971.00;6193845;23;20156;-93
2022/05/29 17:31:33;;;;;;;2.23;1.40;;;;;;;20.30;55.18;96787.19;6162199;23;20146;-93
2022/05/29 17:34:33;;;;;;;3.07;1.47;;;;;;;20.00;55.19;96738.00;6163123;23;20158;-93
2022/05/29 17:37:52;;;;;;;1.50;1.30;;;;;;;21.39;55.16;96977.78;6147076;23;20155;-95
2022/05/29 17:40:23;;;;;;;3.90;1.80;;;;;;;19.76;55.30;96699.19;6161544;23;20146;-93
2022/05/29 17:42:50;;;;;;;2.10;1.60;;;;;;;18.99;55.14;96575.03;6111560;23;20150;-93
